createdAt,value
2019-03-01T00:02:28.740Z,5.80
2019-03-01T00:05:19.564Z,5.80
2019-03-01T00:08:11.937Z,6.80
2019-03-01T00:11:06.235Z,9.78
2019-03-01T00:13:54.861Z,6.67
2019-03-01T00:16:33.327Z,7.72
2019-03-01T00:19:21.464Z,8.08
2019-03-01T00:22:16.816Z,8.53
2019-03-01T00:25:13.328Z,8.93
2019-03-01T00:28:04.327Z,7.12
2019-03-01T00:30:46.134Z,7.55
2019-03-01T00:33:28.412Z,7.25
2019-03-01T00:36:17.724Z,6.67
2019-03-01T00:38:58.587Z,6.67
2019-03-01T00:41:57.459Z,6.85
2019-03-01T00:44:36.241Z,11.28
2019-03-01T00:47:06.109Z,7.17
2019-03-01T00:49:36.472Z,6.08
2019-03-01T00:52:06.769Z,10.20
2019-03-01T00:54:36.769Z,13.13
2019-03-01T00:57:07.279Z,11.90
2019-03-01T00:59:37.196Z,7.62
2019-03-01T01:02:07.125Z,8.40
2019-03-01T01:04:37.099Z,8.83
2019-03-01T01:07:07.039Z,7.60
2019-03-01T01:09:37.024Z,10.10
2019-03-01T01:12:06.974Z,8.55
2019-03-01T01:14:36.879Z,8.73
2019-03-01T01:17:06.753Z,7.30
2019-03-01T01:19:36.664Z,8.33
2019-03-01T01:22:06.526Z,8.45
2019-03-01T01:27:05.512Z,10.65
2019-03-01T01:29:35.473Z,8.65
2019-03-01T01:32:05.448Z,8.20
2019-03-01T01:34:35.364Z,5.60
2019-03-01T01:37:05.364Z,6.35
2019-03-01T01:39:35.202Z,7.47
2019-03-01T01:42:05.302Z,7.05
2019-03-01T01:44:35.140Z,6.35
2019-03-01T01:47:05.149Z,7.17
2019-03-01T01:49:35.120Z,8.33
2019-03-01T01:52:04.990Z,6.53
2019-03-01T01:54:34.901Z,7.05
2019-03-01T01:57:04.827Z,6.67
2019-03-01T01:59:34.673Z,7.22
2019-03-01T02:02:04.668Z,5.60
2019-03-01T02:04:34.576Z,6.85
2019-03-01T02:07:04.492Z,5.65
2019-03-01T02:09:35.354Z,5.62
2019-03-01T02:12:05.342Z,5.55
2019-03-01T02:14:35.189Z,5.87
2019-03-01T02:17:05.129Z,6.42
2019-03-01T02:19:35.107Z,6.80
2019-03-01T02:22:06.022Z,5.30
2019-03-01T02:24:35.961Z,5.78
2019-03-01T02:27:23.164Z,5.17
2019-03-01T02:29:53.163Z,5.37
2019-03-01T02:32:38.359Z,4.40
2019-03-01T02:35:11.408Z,5.22
2019-03-01T02:37:41.282Z,4.90
2019-03-01T02:40:14.303Z,4.67
2019-03-01T02:42:45.341Z,7.05
2019-03-01T02:45:17.224Z,5.42
2019-03-01T02:47:47.146Z,5.42
2019-03-01T02:50:19.462Z,5.03
2019-03-01T02:52:49.478Z,5.05
2019-03-01T02:55:21.420Z,6.20
2019-03-01T03:00:22.928Z,6.25
2019-03-01T03:02:54.072Z,5.33
2019-03-01T03:05:24.255Z,4.40
2019-03-01T03:07:55.848Z,5.97
2019-03-01T03:10:25.816Z,6.10
2019-03-01T03:12:58.506Z,4.22
2019-03-01T03:15:35.870Z,5.17
2019-03-01T03:18:05.903Z,5.60
2019-03-01T03:20:35.828Z,3.27
2019-03-01T03:23:05.884Z,3.15
2019-03-01T03:25:35.730Z,4.20
2019-03-01T03:28:05.739Z,3.72
2019-03-01T03:30:35.727Z,3.80
2019-03-01T03:33:05.650Z,4.17
2019-03-01T03:35:35.564Z,4.10
2019-03-01T03:38:05.984Z,3.00
2019-03-01T03:40:35.888Z,1.95
2019-03-01T03:43:06.127Z,3.33
2019-03-01T03:45:35.970Z,4.17
2019-03-01T03:48:06.041Z,3.17
2019-03-01T03:50:35.957Z,3.80
2019-03-01T03:53:05.958Z,3.87
2019-03-01T03:55:36.014Z,3.62
2019-03-01T03:58:05.946Z,4.37
2019-03-01T04:00:35.789Z,3.37
2019-03-01T04:03:05.790Z,2.90
2019-03-01T04:05:35.697Z,2.80
2019-03-01T04:08:05.706Z,2.95
2019-03-01T04:10:35.641Z,2.87
2019-03-01T04:13:05.505Z,5.58
2019-03-01T04:15:35.430Z,4.05
2019-03-01T04:18:05.361Z,5.55
2019-03-01T04:20:35.203Z,3.52
2019-03-01T04:23:05.076Z,3.33
2019-03-01T04:25:34.988Z,3.87
2019-03-01T04:28:04.927Z,2.67
2019-03-01T04:30:34.912Z,2.25
2019-03-01T04:33:04.772Z,5.28
2019-03-01T04:35:34.688Z,2.40
2019-03-01T04:38:04.545Z,3.27
2019-03-01T04:40:34.888Z,3.30
2019-03-01T04:43:04.801Z,3.30
2019-03-01T04:45:34.660Z,4.47
2019-03-01T04:48:04.502Z,2.87
2019-03-01T04:50:34.583Z,2.35
2019-03-01T04:53:04.552Z,3.00
2019-03-01T04:55:34.499Z,3.33
2019-03-01T04:58:04.555Z,4.08
2019-03-01T05:00:34.622Z,2.60
2019-03-01T05:03:04.762Z,2.77
2019-03-01T05:05:34.624Z,2.85
2019-03-01T05:08:04.600Z,3.35
2019-03-01T05:10:34.456Z,5.95
2019-03-01T05:13:04.365Z,3.35
2019-03-01T05:15:34.227Z,2.52
2019-03-01T05:18:04.140Z,2.80
2019-03-01T05:20:34.011Z,2.85
2019-03-01T05:23:03.930Z,2.10
2019-03-01T05:25:33.864Z,2.75
2019-03-01T05:28:03.785Z,1.90
2019-03-01T05:30:33.725Z,3.52
2019-03-01T05:33:03.663Z,2.92
2019-03-01T05:35:33.564Z,2.72
2019-03-01T05:38:03.506Z,3.08
2019-03-01T05:40:33.416Z,3.20
2019-03-01T05:43:03.283Z,2.20
2019-03-01T05:45:33.193Z,2.37
2019-03-01T05:48:03.125Z,2.70
2019-03-01T05:50:33.045Z,1.37
2019-03-01T05:53:02.978Z,1.98
2019-03-01T05:55:32.965Z,2.80
2019-03-01T05:58:28.883Z,1.42
2019-03-01T06:01:05.182Z,4.53
2019-03-01T06:03:57.852Z,1.60
2019-03-01T06:06:36.611Z,2.77
2019-03-01T06:09:27.546Z,2.00
2019-03-01T06:12:23.407Z,1.95
2019-03-01T06:15:01.831Z,2.65
2019-03-01T06:17:54.476Z,1.92
2019-03-01T06:20:33.112Z,2.45
2019-03-01T06:23:25.517Z,1.82
2019-03-01T06:26:16.652Z,2.05
2019-03-01T06:28:49.574Z,2.12
2019-03-01T06:31:42.983Z,2.77
2019-03-01T06:34:35.437Z,2.58
2019-03-01T06:37:35.869Z,2.15
2019-03-01T06:40:35.508Z,2.12
2019-03-01T06:43:14.309Z,2.77
2019-03-01T06:46:05.052Z,3.22
2019-03-01T06:48:36.552Z,2.75
2019-03-01T06:51:10.716Z,3.17
2019-03-01T06:53:40.581Z,5.80
2019-03-01T06:56:10.564Z,5.00
2019-03-01T06:58:40.670Z,5.37
2019-03-01T07:01:11.394Z,4.95
2019-03-01T07:03:41.334Z,4.20
2019-03-01T07:06:11.324Z,7.12
2019-03-01T07:08:41.454Z,7.78
2019-03-01T07:11:11.531Z,4.47
2019-03-01T07:13:41.472Z,10.80
2019-03-01T07:16:11.455Z,8.18
2019-03-01T07:18:41.320Z,9.23
2019-03-01T07:21:11.238Z,12.25
2019-03-01T07:23:41.181Z,8.55
2019-03-01T07:26:11.027Z,8.78
2019-03-01T07:28:40.895Z,11.30
2019-03-01T07:31:10.736Z,8.73
2019-03-01T07:33:40.597Z,5.42
2019-03-01T07:36:10.464Z,10.25
2019-03-01T07:38:40.387Z,7.50
2019-03-01T07:41:10.324Z,9.65
2019-03-01T07:43:40.245Z,5.47
2019-03-01T07:46:10.182Z,4.90
2019-03-01T07:48:40.033Z,5.45
2019-03-01T07:51:09.966Z,5.95
2019-03-01T07:53:41.957Z,8.98
2019-03-01T07:56:11.512Z,3.85
2019-03-01T07:58:41.428Z,6.20
2019-03-01T08:01:11.294Z,5.60
2019-03-01T08:03:41.284Z,8.48
2019-03-01T08:06:13.517Z,3.70
2019-03-01T08:08:42.764Z,4.12
2019-03-01T08:11:12.697Z,5.45
2019-03-01T08:13:42.609Z,3.98
2019-03-01T08:16:12.684Z,4.55
2019-03-01T08:18:44.117Z,3.60
2019-03-01T08:21:14.939Z,4.15
2019-03-01T08:23:44.986Z,6.37
2019-03-01T08:26:14.854Z,4.28
2019-03-01T08:28:44.768Z,5.15
2019-03-01T08:31:17.436Z,4.30
2019-03-01T08:33:46.200Z,5.72
2019-03-01T08:36:16.140Z,4.03
2019-03-01T08:38:46.001Z,4.42
2019-03-01T08:41:16.380Z,4.85
2019-03-01T08:43:47.989Z,6.78
2019-03-01T08:46:18.959Z,4.17
2019-03-01T08:48:48.864Z,5.35
2019-03-01T08:51:22.677Z,5.00
2019-03-01T08:53:52.198Z,3.72
2019-03-01T08:56:26.129Z,2.98
2019-03-01T08:58:53.604Z,2.70
2019-03-01T09:01:25.551Z,4.90
2019-03-01T09:04:07.312Z,2.60
2019-03-01T09:06:37.322Z,4.58
2019-03-01T09:09:08.692Z,2.95
2019-03-01T09:11:41.661Z,2.45
2019-03-01T09:14:12.470Z,3.50
2019-03-01T09:16:42.409Z,3.25
2019-03-01T09:19:12.322Z,4.62
2019-03-01T09:21:44.658Z,2.37
2019-03-01T09:24:13.791Z,2.42
2019-03-01T09:26:43.657Z,2.52
2019-03-01T09:29:18.295Z,3.42
2019-03-01T09:31:45.067Z,3.22
2019-03-01T09:34:15.049Z,2.85
2019-03-01T09:36:46.705Z,3.50
2019-03-01T09:39:18.163Z,4.47
2019-03-01T09:41:48.160Z,2.37
2019-03-01T09:44:18.014Z,2.12
2019-03-01T09:46:47.944Z,2.27
2019-03-01T09:49:17.851Z,3.52
2019-03-01T09:51:49.959Z,2.62
2019-03-01T09:54:19.327Z,3.00
2019-03-01T09:56:49.330Z,3.33
2019-03-01T09:59:19.240Z,1.90
2019-03-01T10:01:49.153Z,2.85
2019-03-01T10:04:19.017Z,2.58
2019-03-01T10:06:49.021Z,2.10
2019-03-01T10:09:18.864Z,2.00
2019-03-01T10:11:48.870Z,2.47
2019-03-01T10:14:20.266Z,2.35
2019-03-01T10:16:52.931Z,1.62
2019-03-01T10:19:22.814Z,2.27
2019-03-01T10:21:52.680Z,3.02
2019-03-01T10:24:22.545Z,2.25
2019-03-01T10:26:52.523Z,1.60
2019-03-01T10:29:22.402Z,2.47
2019-03-01T10:31:52.317Z,1.65
2019-03-01T10:34:22.300Z,2.20
2019-03-01T10:36:52.141Z,1.72
2019-03-01T10:39:22.082Z,2.70
2019-03-01T10:41:51.931Z,1.98
2019-03-01T10:44:21.856Z,1.82
2019-03-01T10:46:51.705Z,1.80
2019-03-01T10:49:21.568Z,2.72
2019-03-01T10:51:51.407Z,2.87
2019-03-01T10:54:21.271Z,2.35
2019-03-01T10:56:51.108Z,2.08
2019-03-01T10:59:20.972Z,1.52
2019-03-01T11:01:50.952Z,2.30
2019-03-01T11:04:20.817Z,2.50
2019-03-01T11:06:50.810Z,1.60
2019-03-01T11:09:20.744Z,1.92
2019-03-01T11:11:50.661Z,0.95
2019-03-01T11:14:20.508Z,2.58
2019-03-01T11:16:50.371Z,2.00
2019-03-01T11:19:20.280Z,1.60
2019-03-01T11:21:50.208Z,1.20
2019-03-01T11:24:21.090Z,2.12
2019-03-01T11:26:50.954Z,2.05
2019-03-01T11:29:20.789Z,1.90
2019-03-01T11:31:50.727Z,1.72
2019-03-01T11:34:20.909Z,2.20
2019-03-01T11:36:52.007Z,1.72
2019-03-01T11:39:22.043Z,0.93
2019-03-01T11:41:51.982Z,1.90
2019-03-01T11:44:22.868Z,1.00
2019-03-01T11:46:52.745Z,1.55
2019-03-01T11:49:22.660Z,1.92
2019-03-01T11:51:52.535Z,1.30
2019-03-01T11:54:22.512Z,1.20
2019-03-01T11:56:53.752Z,1.95
2019-03-01T11:59:23.885Z,2.15
2019-03-01T12:01:53.843Z,3.12
2019-03-01T12:04:23.827Z,1.12
2019-03-01T12:06:54.905Z,1.15
2019-03-01T12:09:24.916Z,2.27
2019-03-01T12:11:54.852Z,2.22
2019-03-01T12:14:24.760Z,1.40
2019-03-01T12:16:54.844Z,1.72
2019-03-01T12:19:24.863Z,1.70
2019-03-01T12:21:54.767Z,2.47
2019-03-01T12:24:24.674Z,1.52
2019-03-01T12:26:54.607Z,1.25
2019-03-01T12:29:24.448Z,1.25
2019-03-01T12:31:54.309Z,1.57
2019-03-01T12:34:24.157Z,1.12
2019-03-01T12:36:54.039Z,1.47
2019-03-01T12:39:25.032Z,1.10
2019-03-01T12:41:54.957Z,1.32
2019-03-01T12:44:24.800Z,1.47
2019-03-01T12:46:54.665Z,1.25
2019-03-01T12:49:24.599Z,1.25
2019-03-01T12:51:54.454Z,1.00
2019-03-01T12:54:24.376Z,1.32
2019-03-01T12:56:54.221Z,2.70
2019-03-01T12:59:24.156Z,0.82
2019-03-01T13:01:54.064Z,1.30
2019-03-01T13:04:23.925Z,1.45
2019-03-01T13:06:53.771Z,1.17
2019-03-01T13:09:26.478Z,2.22
2019-03-01T13:11:55.244Z,1.10
2019-03-01T13:14:25.105Z,1.07
2019-03-01T13:16:54.952Z,1.37
2019-03-01T13:19:26.109Z,1.30
2019-03-01T13:21:56.442Z,1.07
2019-03-01T13:24:26.448Z,1.17
2019-03-01T13:26:56.291Z,0.68
2019-03-01T13:29:26.225Z,1.02
2019-03-01T13:31:56.201Z,1.02
2019-03-01T13:34:26.764Z,1.40
2019-03-01T13:36:57.330Z,1.00
2019-03-01T13:39:27.713Z,0.85
2019-03-01T13:41:57.922Z,1.20
2019-03-01T13:44:28.184Z,1.22
2019-03-01T13:46:58.324Z,0.65
2019-03-01T13:49:30.389Z,0.98
2019-03-01T13:52:01.383Z,1.72
2019-03-01T13:54:31.436Z,1.07
2019-03-01T13:57:01.431Z,0.60
2019-03-01T13:59:31.360Z,1.12
2019-03-01T14:02:04.216Z,1.10
2019-03-01T14:04:32.769Z,0.72
2019-03-01T14:07:02.688Z,1.02
2019-03-01T14:09:34.407Z,0.78
2019-03-01T14:12:04.196Z,0.75
2019-03-01T14:14:34.136Z,0.65
2019-03-01T14:17:04.117Z,0.60
2019-03-01T14:19:34.023Z,0.70
2019-03-01T14:22:05.261Z,1.55
2019-03-01T14:24:35.644Z,0.57
2019-03-01T14:27:05.565Z,1.02
2019-03-01T14:29:35.570Z,1.17
2019-03-01T14:32:05.563Z,0.60
2019-03-01T14:34:35.443Z,0.82
2019-03-01T14:37:05.424Z,0.98
2019-03-01T14:39:35.291Z,0.80
2019-03-01T14:42:07.208Z,0.85
2019-03-01T14:44:36.993Z,0.50
2019-03-01T14:47:06.928Z,0.70
2019-03-01T14:49:36.872Z,0.57
2019-03-01T14:52:06.852Z,0.93
2019-03-01T14:54:36.999Z,0.70
2019-03-01T14:57:09.936Z,0.50
2019-03-01T14:59:44.076Z,0.50
2019-03-01T15:02:22.970Z,0.50
2019-03-01T15:04:54.363Z,0.70
2019-03-01T15:07:27.919Z,0.50
2019-03-01T15:09:57.003Z,1.85
2019-03-01T15:12:28.192Z,1.40
2019-03-01T15:14:58.164Z,0.80
2019-03-01T15:17:28.079Z,0.57
2019-03-01T15:19:57.941Z,0.95
2019-03-01T15:22:27.869Z,1.10
2019-03-01T15:24:57.811Z,0.75
2019-03-01T15:27:27.802Z,1.00
2019-03-01T15:29:57.898Z,2.00
2019-03-01T15:32:31.206Z,0.88
2019-03-01T15:35:02.842Z,1.47
2019-03-01T15:37:35.007Z,0.82
2019-03-01T15:40:03.132Z,0.88
2019-03-01T15:42:33.818Z,0.82
2019-03-01T15:45:05.922Z,0.90
2019-03-01T15:47:36.420Z,0.62
2019-03-01T15:50:09.738Z,0.85
2019-03-01T15:52:39.983Z,1.10
2019-03-01T15:55:12.806Z,1.17
2019-03-01T15:57:42.732Z,0.62
2019-03-01T16:00:17.804Z,1.20
2019-03-01T16:02:49.958Z,0.53
2019-03-01T16:05:19.476Z,0.62
2019-03-01T16:07:49.472Z,0.60
2019-03-01T16:10:20.810Z,0.72
2019-03-01T16:12:51.036Z,0.70
2019-03-01T16:15:21.100Z,1.05
2019-03-01T16:17:51.109Z,1.22
2019-03-01T16:20:21.280Z,0.95
2019-03-01T16:22:54.232Z,0.50
2019-03-01T16:27:54.204Z,0.75
2019-03-01T16:30:25.062Z,0.75
2019-03-01T16:32:55.749Z,0.62
2019-03-01T16:35:26.257Z,0.75
2019-03-01T16:38:02.306Z,0.60
2019-03-01T16:40:32.719Z,0.55
2019-03-01T16:43:02.927Z,1.12
2019-03-01T16:45:33.657Z,0.50
2019-03-01T16:48:04.451Z,0.65
2019-03-01T16:50:34.804Z,0.45
2019-03-01T16:53:05.599Z,1.10
2019-03-01T16:55:36.273Z,0.75
2019-03-01T16:58:07.428Z,0.75
2019-03-01T17:00:38.727Z,0.60
2019-03-01T17:03:17.850Z,0.40
2019-03-01T17:05:48.912Z,1.17
2019-03-01T17:08:19.811Z,0.40
2019-03-01T17:10:51.750Z,0.90
2019-03-01T17:15:54.684Z,0.60
2019-03-01T17:18:27.226Z,0.78
2019-03-01T17:20:58.442Z,0.50
2019-03-01T17:23:29.590Z,0.85
2019-03-01T17:26:00.820Z,0.83
2019-03-01T17:28:31.896Z,0.55
2019-03-01T17:31:03.097Z,0.90
2019-03-01T17:33:34.234Z,0.90
2019-03-01T17:36:05.600Z,0.53
2019-03-01T17:38:36.704Z,0.68
2019-03-01T17:41:09.776Z,0.85
2019-03-01T17:43:40.670Z,0.68
2019-03-01T17:46:11.909Z,0.57
2019-03-01T17:48:42.983Z,0.50
2019-03-01T17:51:14.189Z,0.50
2019-03-01T17:53:46.393Z,0.82
2019-03-01T17:56:18.645Z,0.42
2019-03-01T17:58:50.618Z,0.55
2019-03-01T18:01:21.826Z,0.50
2019-03-01T18:03:52.914Z,0.40
2019-03-01T18:06:24.111Z,0.50
2019-03-01T18:08:55.198Z,0.60
2019-03-01T18:11:26.602Z,0.50
2019-03-01T18:14:00.816Z,0.40
2019-03-01T18:16:30.697Z,0.50
2019-03-01T18:19:01.881Z,0.53
2019-03-01T18:21:33.096Z,0.50
2019-03-01T18:24:04.310Z,0.50
2019-03-01T18:26:36.403Z,0.40
2019-03-01T18:29:08.411Z,1.22
2019-03-01T18:31:39.955Z,0.70
2019-03-01T18:34:11.127Z,0.57
2019-03-01T18:36:42.400Z,0.63
2019-03-01T18:39:13.503Z,0.57
2019-03-01T18:41:44.917Z,0.60
2019-03-01T18:44:17.386Z,0.40
2019-03-01T18:46:51.636Z,0.40
2019-03-01T18:49:21.209Z,0.57
2019-03-01T18:51:52.449Z,0.50
2019-03-01T18:54:23.577Z,0.88
2019-03-01T18:56:54.824Z,0.77
2019-03-01T18:59:26.424Z,1.37
2019-03-01T19:01:58.443Z,0.60
2019-03-01T19:04:30.022Z,0.70
2019-03-01T19:07:01.460Z,0.57
2019-03-01T19:09:32.571Z,0.62
2019-03-01T19:12:03.869Z,0.53
2019-03-01T19:14:35.514Z,0.68
2019-03-01T19:17:07.825Z,0.70
2019-03-01T19:19:38.944Z,0.62
2019-03-01T19:22:10.212Z,0.50
2019-03-01T19:24:43.270Z,0.80
2019-03-01T19:27:15.596Z,0.70
2019-03-01T19:29:46.857Z,0.40
2019-03-01T19:32:18.090Z,0.97
2019-03-01T19:34:52.806Z,0.50
2019-03-01T19:37:23.156Z,0.60
2019-03-01T19:39:54.305Z,0.53
2019-03-01T19:42:25.643Z,0.40
2019-03-01T19:44:56.779Z,0.40
2019-03-01T19:47:29.108Z,0.50
2019-03-01T19:50:00.261Z,0.53
2019-03-01T19:52:31.489Z,0.53
2019-03-01T19:55:02.622Z,0.95
2019-03-01T19:57:36.325Z,0.95
2019-03-01T20:00:26.138Z,0.60
2019-03-01T20:02:57.365Z,0.35
2019-03-01T20:05:41.383Z,0.62
2019-03-01T20:08:12.604Z,0.70
2019-03-01T20:10:47.656Z,0.40
2019-03-01T20:13:18.258Z,0.50
2019-03-01T20:15:50.812Z,0.78
2019-03-01T20:18:22.048Z,0.40
2019-03-01T20:20:53.169Z,0.53
2019-03-01T20:23:26.487Z,0.50
2019-03-01T20:25:58.416Z,0.40
2019-03-01T20:28:32.579Z,0.53
2019-03-01T20:31:04.932Z,0.95
2019-03-01T20:33:36.181Z,0.50
2019-03-01T20:36:07.292Z,0.78
2019-03-01T20:38:40.060Z,0.78
2019-03-01T20:41:11.911Z,0.50
2019-03-01T20:43:45.251Z,0.60
2019-03-01T20:46:16.395Z,0.50
2019-03-01T20:48:49.015Z,0.62
2019-03-01T20:51:26.380Z,0.53
2019-03-01T20:53:52.873Z,0.55
2019-03-01T20:58:56.395Z,0.50
2019-03-01T21:01:27.823Z,0.75
2019-03-01T21:04:01.467Z,0.55
2019-03-01T21:06:37.321Z,0.60
2019-03-01T21:09:08.035Z,0.40
2019-03-01T21:11:41.680Z,0.95
2019-03-01T21:14:14.245Z,0.65
2019-03-01T21:16:45.997Z,0.60
2019-03-01T21:19:17.478Z,0.78
2019-03-01T21:21:49.072Z,0.60
2019-03-01T21:24:23.008Z,0.57
2019-03-01T21:26:54.110Z,0.70
2019-03-01T21:29:26.690Z,0.50
2019-03-01T21:31:57.818Z,0.93
2019-03-01T21:34:31.332Z,0.60
2019-03-01T21:37:02.682Z,0.72
2019-03-01T21:39:36.593Z,0.57
2019-03-01T21:42:09.190Z,0.72
2019-03-01T21:44:42.699Z,0.68
2019-03-01T21:47:16.628Z,1.17
2019-03-01T21:49:47.961Z,0.62
2019-03-01T21:52:19.224Z,1.02
2019-03-01T21:54:51.952Z,0.50
2019-03-01T21:57:23.104Z,0.70
2019-03-01T21:59:56.638Z,0.73
2019-03-01T22:02:27.172Z,0.70
2019-03-01T22:04:58.395Z,0.50
2019-03-01T22:07:29.579Z,0.98
2019-03-01T22:10:00.917Z,0.70
2019-03-01T22:12:33.580Z,0.93
2019-03-01T22:17:37.171Z,0.68
2019-03-01T22:20:10.673Z,0.60
2019-03-01T22:22:42.841Z,0.93
2019-03-01T22:25:15.298Z,0.50
2019-03-01T22:27:47.774Z,0.70
2019-03-01T22:30:25.030Z,0.60
2019-03-01T22:32:56.120Z,0.80
2019-03-01T22:35:27.358Z,0.60
2019-03-01T22:38:00.880Z,0.60
2019-03-01T22:40:32.380Z,0.75
2019-03-01T22:43:03.522Z,0.70
2019-03-01T22:45:34.888Z,0.60
2019-03-01T22:48:08.524Z,0.70
2019-03-01T22:50:39.480Z,0.50
2019-03-01T22:53:10.818Z,0.60
2019-03-01T22:55:41.949Z,0.70
2019-03-01T22:58:13.092Z,0.72
2019-03-01T23:00:57.949Z,0.60
2019-03-01T23:03:28.730Z,1.10
2019-03-01T23:05:59.159Z,0.75
2019-03-01T23:08:31.751Z,0.50
2019-03-01T23:11:02.251Z,1.40
2019-03-01T23:13:32.406Z,1.10
2019-03-01T23:16:02.499Z,0.70
2019-03-01T23:18:32.492Z,0.70
2019-03-01T23:21:02.618Z,0.65
2019-03-01T23:23:32.653Z,0.80
2019-03-01T23:26:02.714Z,0.78
2019-03-01T23:28:32.696Z,0.70
2019-03-01T23:31:03.843Z,0.72
2019-03-01T23:36:03.864Z,0.80
2019-03-01T23:38:33.892Z,0.90
2019-03-01T23:41:03.922Z,0.72
2019-03-01T23:43:33.924Z,0.60
2019-03-01T23:46:03.969Z,0.88
2019-03-01T23:48:33.884Z,0.78
2019-03-01T23:51:06.690Z,1.00
2019-03-01T23:53:35.488Z,0.80
2019-03-01T23:56:05.496Z,1.57
2019-03-01T23:58:35.442Z,1.02
